sensor_id;sensor_type;location;lat;lon;timestamp;temperature;humidity
18839;DHT22;9548;56.920;14.804;2023-04-25T00:02:08;8.20;99.90
18839;DHT22;9548;56.920;14.804;2023-04-25T00:04:36;8.10;99.90
18839;DHT22;9548;56.920;14.804;2023-04-25T00:07:03;8.10;99.90
18839;DHT22;9548;56.920;14.804;2023-04-25T00:09:31;8.10;99.90
18839;DHT22;9548;56.920;14.804;2023-04-25T00:11:58;8.10;99.90
18839;DHT22;9548;56.920;14.804;2023-04-25T00:14:26;8.10;99.90
18839;DHT22;9548;56.920;14.804;2023-04-25T00:16:54;8.10;99.90
18839;DHT22;9548;56.920;14.804;2023-04-25T00:19:21;8.00;99.90
18839;DHT22;9548;56.920;14.804;2023-04-25T00:21:50;8.00;99.90
18839;DHT22;9548;56.920;14.804;2023-04-25T00:24:17;8.10;99.90
18839;DHT22;9548;56.920;14.804;2023-04-25T00:26:44;8.00;99.90
18839;DHT22;9548;56.920;14.804;2023-04-25T00:29:11;8.00;99.90
18839;DHT22;9548;56.920;14.804;2023-04-25T00:31:38;8.10;99.90
18839;DHT22;9548;56.920;14.804;2023-04-25T00:34:06;8.10;99.90
18839;DHT22;9548;56.920;14.804;2023-04-25T00:36:33;8.10;99.90
18839;DHT22;9548;56.920;14.804;2023-04-25T00:39:02;8.00;99.90
18839;DHT22;9548;56.920;14.804;2023-04-25T00:41:30;8.00;99.90
18839;DHT22;9548;56.920;14.804;2023-04-25T00:43:57;8.00;99.90
18839;DHT22;9548;56.920;14.804;2023-04-25T00:46:25;8.00;99.90
18839;DHT22;9548;56.920;14.804;2023-04-25T00:48:52;8.00;99.90
18839;DHT22;9548;56.920;14.804;2023-04-25T00:51:20;8.00;99.90
18839;DHT22;9548;56.920;14.804;2023-04-25T00:53:49;8.00;99.90
18839;DHT22;9548;56.920;14.804;2023-04-25T00:56:17;8.00;99.90
18839;DHT22;9548;56.920;14.804;2023-04-25T00:58:44;8.00;99.90
18839;DHT22;9548;56.920;14.804;2023-04-25T01:01:11;8.00;99.90
18839;DHT22;9548;56.920;14.804;2023-04-25T01:03:39;8.00;99.90
18839;DHT22;9548;56.920;14.804;2023-04-25T01:06:07;8.00;99.90
18839;DHT22;9548;56.920;14.804;2023-04-25T01:08:35;8.00;99.90
18839;DHT22;9548;56.920;14.804;2023-04-25T01:11:02;7.90;99.90
18839;DHT22;9548;56.920;14.804;2023-04-25T01:13:31;8.00;99.90
18839;DHT22;9548;56.920;14.804;2023-04-25T01:15:59;8.10;99.90
18839;DHT22;9548;56.920;14.804;2023-04-25T01:18:26;8.10;99.90
18839;DHT22;9548;56.920;14.804;2023-04-25T01:20:54;8.10;99.90
18839;DHT22;9548;56.920;14.804;2023-04-25T01:23:23;8.10;99.90
18839;DHT22;9548;56.920;14.804;2023-04-25T01:25:50;8.10;99.90
18839;DHT22;9548;56.920;14.804;2023-04-25T01:28:18;8.10;99.90
18839;DHT22;9548;56.920;14.804;2023-04-25T01:30:46;8.10;99.90
18839;DHT22;9548;56.920;14.804;2023-04-25T01:33:14;8.10;99.90
18839;DHT22;9548;56.920;14.804;2023-04-25T01:35:42;8.20;99.90
18839;DHT22;9548;56.920;14.804;2023-04-25T01:38:09;8.10;99.90
18839;DHT22;9548;56.920;14.804;2023-04-25T01:40:39;8.10;99.90
18839;DHT22;9548;56.920;14.804;2023-04-25T01:43:06;8.10;99.90
18839;DHT22;9548;56.920;14.804;2023-04-25T01:45:36;8.10;99.90
18839;DHT22;9548;56.920;14.804;2023-04-25T01:48:05;8.00;99.90
18839;DHT22;9548;56.920;14.804;2023-04-25T01:50:32;8.00;99.90
18839;DHT22;9548;56.920;14.804;2023-04-25T01:53:00;8.00;99.90
18839;DHT22;9548;56.920;14.804;2023-04-25T01:55:27;8.00;99.90
18839;DHT22;9548;56.920;14.804;2023-04-25T01:57:55;8.10;99.90
18839;DHT22;9548;56.920;14.804;2023-04-25T02:00:22;8.00;99.90
18839;DHT22;9548;56.920;14.804;2023-04-25T02:02:49;8.00;99.90
18839;DHT22;9548;56.920;14.804;2023-04-25T02:05:18;8.00;99.90
18839;DHT22;9548;56.920;14.804;2023-04-25T02:07:46;8.00;99.90
18839;DHT22;9548;56.920;14.804;2023-04-25T02:10:13;8.00;99.90
18839;DHT22;9548;56.920;14.804;2023-04-25T02:12:40;8.10;99.90
18839;DHT22;9548;56.920;14.804;2023-04-25T02:15:09;8.10;99.90
18839;DHT22;9548;56.920;14.804;2023-04-25T02:17:37;8.00;99.90
18839;DHT22;9548;56.920;14.804;2023-04-25T02:20:05;8.10;99.90
18839;DHT22;9548;56.920;14.804;2023-04-25T02:22:33;8.10;99.90
18839;DHT22;9548;56.920;14.804;2023-04-25T02:25:01;8.10;99.90
18839;DHT22;9548;56.920;14.804;2023-04-25T02:27:29;8.10;99.90
18839;DHT22;9548;56.920;14.804;2023-04-25T02:29:56;8.10;99.90
18839;DHT22;9548;56.920;14.804;2023-04-25T02:32:24;8.10;99.90
18839;DHT22;9548;56.920;14.804;2023-04-25T02:34:52;8.10;99.90
18839;DHT22;9548;56.920;14.804;2023-04-25T02:37:19;8.10;99.90
18839;DHT22;9548;56.920;14.804;2023-04-25T02:39:46;8.10;99.90
18839;DHT22;9548;56.920;14.804;2023-04-25T02:42:13;8.10;99.90
18839;DHT22;9548;56.920;14.804;2023-04-25T02:44:40;8.10;99.90
18839;DHT22;9548;56.920;14.804;2023-04-25T02:47:07;8.10;99.90
18839;DHT22;9548;56.920;14.804;2023-04-25T02:49:35;8.10;99.90
18839;DHT22;9548;56.920;14.804;2023-04-25T02:52:03;8.10;99.90
18839;DHT22;9548;56.920;14.804;2023-04-25T02:54:30;8.10;99.90
18839;DHT22;9548;56.920;14.804;2023-04-25T02:56:57;8.10;99.90
18839;DHT22;9548;56.920;14.804;2023-04-25T02:59:24;8.10;99.90
18839;DHT22;9548;56.920;14.804;2023-04-25T03:01:50;8.00;99.90
18839;DHT22;9548;56.920;14.804;2023-04-25T03:04:17;8.00;99.90
18839;DHT22;9548;56.920;14.804;2023-04-25T03:06:47;8.00;99.90
18839;DHT22;9548;56.920;14.804;2023-04-25T03:09:15;8.00;99.90
18839;DHT22;9548;56.920;14.804;2023-04-25T03:11:44;8.00;99.90
18839;DHT22;9548;56.920;14.804;2023-04-25T03:14:11;8.00;99.90
18839;DHT22;9548;56.920;14.804;2023-04-25T03:16:38;8.10;99.90
18839;DHT22;9548;56.920;14.804;2023-04-25T03:19:05;8.10;99.90
18839;DHT22;9548;56.920;14.804;2023-04-25T03:21:34;8.00;99.90
18839;DHT22;9548;56.920;14.804;2023-04-25T03:24:04;8.00;99.90
18839;DHT22;9548;56.920;14.804;2023-04-25T03:26:31;8.00;99.90
18839;DHT22;9548;56.920;14.804;2023-04-25T03:28:58;8.10;99.90
18839;DHT22;9548;56.920;14.804;2023-04-25T03:31:25;8.00;99.90
18839;DHT22;9548;56.920;14.804;2023-04-25T03:33:52;8.00;99.90
18839;DHT22;9548;56.920;14.804;2023-04-25T03:36:19;8.00;99.90
18839;DHT22;9548;56.920;14.804;2023-04-25T03:38:46;8.00;99.90
18839;DHT22;9548;56.920;14.804;2023-04-25T03:41:15;7.90;99.90
18839;DHT22;9548;56.920;14.804;2023-04-25T03:43:42;7.90;99.90
18839;DHT22;9548;56.920;14.804;2023-04-25T03:46:09;7.90;99.90
18839;DHT22;9548;56.920;14.804;2023-04-25T03:48:35;7.90;99.90
18839;DHT22;9548;56.920;14.804;2023-04-25T03:51:03;7.90;99.90
18839;DHT22;9548;56.920;14.804;2023-04-25T03:53:30;7.90;99.90
18839;DHT22;9548;56.920;14.804;2023-04-25T03:55:57;7.90;99.90
18839;DHT22;9548;56.920;14.804;2023-04-25T03:58:25;7.90;99.90
18839;DHT22;9548;56.920;14.804;2023-04-25T04:00:52;7.90;99.90
18839;DHT22;9548;56.920;14.804;2023-04-25T04:03:19;7.80;99.90
18839;DHT22;9548;56.920;14.804;2023-04-25T04:05:46;7.80;99.90
18839;DHT22;9548;56.920;14.804;2023-04-25T04:08:13;7.80;99.90
18839;DHT22;9548;56.920;14.804;2023-04-25T04:10:40;7.80;99.90
18839;DHT22;9548;56.920;14.804;2023-04-25T04:13:07;7.80;99.90
18839;DHT22;9548;56.920;14.804;2023-04-25T04:15:35;7.90;99.90
18839;DHT22;9548;56.920;14.804;2023-04-25T04:18:02;7.90;99.90
18839;DHT22;9548;56.920;14.804;2023-04-25T04:20:29;7.90;99.90
18839;DHT22;9548;56.920;14.804;2023-04-25T04:22:56;7.90;99.90
18839;DHT22;9548;56.920;14.804;2023-04-25T04:25:24;7.90;99.90
18839;DHT22;9548;56.920;14.804;2023-04-25T04:27:51;7.90;99.90
18839;DHT22;9548;56.920;14.804;2023-04-25T04:30:21;7.90;99.90
18839;DHT22;9548;56.920;14.804;2023-04-25T04:32:51;7.90;99.90
18839;DHT22;9548;56.920;14.804;2023-04-25T04:35:18;7.90;99.90
18839;DHT22;9548;56.920;14.804;2023-04-25T04:37:45;7.90;99.90
18839;DHT22;9548;56.920;14.804;2023-04-25T04:40:13;8.00;99.90
18839;DHT22;9548;56.920;14.804;2023-04-25T04:42:41;7.90;99.90
18839;DHT22;9548;56.920;14.804;2023-04-25T04:45:08;7.90;99.90
18839;DHT22;9548;56.920;14.804;2023-04-25T04:47:36;8.00;99.90
18839;DHT22;9548;56.920;14.804;2023-04-25T04:50:07;7.90;99.90
18839;DHT22;9548;56.920;14.804;2023-04-25T04:52:35;7.90;99.90
18839;DHT22;9548;56.920;14.804;2023-04-25T04:55:02;8.00;99.90
18839;DHT22;9548;56.920;14.804;2023-04-25T04:57:29;8.00;99.90
18839;DHT22;9548;56.920;14.804;2023-04-25T04:59:56;8.00;99.90
18839;DHT22;9548;56.920;14.804;2023-04-25T05:02:23;8.00;99.90
18839;DHT22;9548;56.920;14.804;2023-04-25T05:04:50;8.00;99.90
18839;DHT22;9548;56.920;14.804;2023-04-25T05:07:19;8.00;99.90
18839;DHT22;9548;56.920;14.804;2023-04-25T05:09:46;7.90;99.90
18839;DHT22;9548;56.920;14.804;2023-04-25T05:12:13;7.90;99.90
18839;DHT22;9548;56.920;14.804;2023-04-25T05:14:40;7.90;99.90
18839;DHT22;9548;56.920;14.804;2023-04-25T05:17:07;7.90;99.90
18839;DHT22;9548;56.920;14.804;2023-04-25T05:19:34;7.90;99.90
18839;DHT22;9548;56.920;14.804;2023-04-25T05:22:01;8.00;99.90
18839;DHT22;9548;56.920;14.804;2023-04-25T05:24:29;8.10;99.90
18839;DHT22;9548;56.920;14.804;2023-04-25T05:26:57;8.10;99.90
18839;DHT22;9548;56.920;14.804;2023-04-25T05:29:24;8.10;99.90
18839;DHT22;9548;56.920;14.804;2023-04-25T05:31:51;8.10;99.90
18839;DHT22;9548;56.920;14.804;2023-04-25T05:34:18;8.10;99.90
18839;DHT22;9548;56.920;14.804;2023-04-25T05:36:45;8.10;99.90
18839;DHT22;9548;56.920;14.804;2023-04-25T05:39:14;8.20;99.90
18839;DHT22;9548;56.920;14.804;2023-04-25T05:41:42;8.20;99.90
18839;DHT22;9548;56.920;14.804;2023-04-25T05:44:09;8.10;99.90
18839;DHT22;9548;56.920;14.804;2023-04-25T05:46:36;8.00;99.90
18839;DHT22;9548;56.920;14.804;2023-04-25T05:49:03;7.90;99.90
18839;DHT22;9548;56.920;14.804;2023-04-25T05:51:30;7.90;99.90
18839;DHT22;9548;56.920;14.804;2023-04-25T05:53:57;7.90;99.90
18839;DHT22;9548;56.920;14.804;2023-04-25T05:56:24;7.90;99.90
18839;DHT22;9548;56.920;14.804;2023-04-25T05:58:52;7.90;99.90
18839;DHT22;9548;56.920;14.804;2023-04-25T06:01:21;8.00;99.90
18839;DHT22;9548;56.920;14.804;2023-04-25T06:03:49;7.90;99.90
18839;DHT22;9548;56.920;14.804;2023-04-25T06:06:16;7.80;99.90
18839;DHT22;9548;56.920;14.804;2023-04-25T06:08:44;7.70;99.90
18839;DHT22;9548;56.920;14.804;2023-04-25T06:11:11;7.70;99.90
18839;DHT22;9548;56.920;14.804;2023-04-25T06:13:38;7.60;99.90
18839;DHT22;9548;56.920;14.804;2023-04-25T06:16:06;7.60;99.90
18839;DHT22;9548;56.920;14.804;2023-04-25T06:18:34;7.50;99.90
18839;DHT22;9548;56.920;14.804;2023-04-25T06:21:01;7.50;99.90
18839;DHT22;9548;56.920;14.804;2023-04-25T06:23:28;7.50;99.90
18839;DHT22;9548;56.920;14.804;2023-04-25T06:25:54;7.50;99.90
18839;DHT22;9548;56.920;14.804;2023-04-25T06:28:22;7.50;99.90
18839;DHT22;9548;56.920;14.804;2023-04-25T06:30:50;7.40;99.90
18839;DHT22;9548;56.920;14.804;2023-04-25T06:33:18;7.40;99.90
18839;DHT22;9548;56.920;14.804;2023-04-25T06:35:45;7.50;99.90
18839;DHT22;9548;56.920;14.804;2023-04-25T06:38:12;7.50;99.90
18839;DHT22;9548;56.920;14.804;2023-04-25T06:40:39;7.50;99.90
18839;DHT22;9548;56.920;14.804;2023-04-25T06:43:06;7.40;99.90
18839;DHT22;9548;56.920;14.804;2023-04-25T06:45:33;7.40;99.90
18839;DHT22;9548;56.920;14.804;2023-04-25T06:48:00;7.50;99.90
18839;DHT22;9548;56.920;14.804;2023-04-25T06:50:28;7.50;99.90
18839;DHT22;9548;56.920;14.804;2023-04-25T06:52:55;7.50;99.90
18839;DHT22;9548;56.920;14.804;2023-04-25T06:55:22;7.50;99.90
18839;DHT22;9548;56.920;14.804;2023-04-25T06:57:49;7.60;99.90
18839;DHT22;9548;56.920;14.804;2023-04-25T07:00:17;7.50;99.90
18839;DHT22;9548;56.920;14.804;2023-04-25T07:02:44;7.50;99.90
18839;DHT22;9548;56.920;14.804;2023-04-25T07:05:11;7.60;99.90
18839;DHT22;9548;56.920;14.804;2023-04-25T07:07:40;7.60;99.90
18839;DHT22;9548;56.920;14.804;2023-04-25T07:10:07;7.70;99.90
18839;DHT22;9548;56.920;14.804;2023-04-25T07:12:34;7.80;99.90
18839;DHT22;9548;56.920;14.804;2023-04-25T07:15:01;7.90;99.90
18839;DHT22;9548;56.920;14.804;2023-04-25T07:17:32;8.10;99.90
18839;DHT22;9548;56.920;14.804;2023-04-25T07:19:59;8.10;99.90
18839;DHT22;9548;56.920;14.804;2023-04-25T07:22:26;8.10;99.90
18839;DHT22;9548;56.920;14.804;2023-04-25T07:24:55;8.20;99.90
18839;DHT22;9548;56.920;14.804;2023-04-25T07:27:22;8.10;99.90
18839;DHT22;9548;56.920;14.804;2023-04-25T07:29:49;8.20;99.90
18839;DHT22;9548;56.920;14.804;2023-04-25T07:32:16;8.20;99.90
18839;DHT22;9548;56.920;14.804;2023-04-25T07:34:43;8.20;99.90
18839;DHT22;9548;56.920;14.804;2023-04-25T07:37:10;8.40;99.90
18839;DHT22;9548;56.920;14.804;2023-04-25T07:39:37;8.50;99.90
18839;DHT22;9548;56.920;14.804;2023-04-25T07:42:05;8.50;99.90
18839;DHT22;9548;56.920;14.804;2023-04-25T07:44:33;8.50;99.90
18839;DHT22;9548;56.920;14.804;2023-04-25T07:47:04;8.30;99.90
18839;DHT22;9548;56.920;14.804;2023-04-25T07:49:32;8.30;99.90
18839;DHT22;9548;56.920;14.804;2023-04-25T07:51:59;8.30;99.90
18839;DHT22;9548;56.920;14.804;2023-04-25T07:54:26;8.20;99.90
18839;DHT22;9548;56.920;14.804;2023-04-25T07:56:53;8.20;99.90
18839;DHT22;9548;56.920;14.804;2023-04-25T07:59:21;8.20;99.90
18839;DHT22;9548;56.920;14.804;2023-04-25T08:01:48;8.20;99.90
18839;DHT22;9548;56.920;14.804;2023-04-25T08:04:15;8.20;99.90
18839;DHT22;9548;56.920;14.804;2023-04-25T08:06:43;8.10;99.90
18839;DHT22;9548;56.920;14.804;2023-04-25T08:09:09;8.20;99.90
18839;DHT22;9548;56.920;14.804;2023-04-25T08:11:36;8.30;99.90
18839;DHT22;9548;56.920;14.804;2023-04-25T08:14:03;8.30;99.90
18839;DHT22;9548;56.920;14.804;2023-04-25T08:16:32;8.40;99.90
18839;DHT22;9548;56.920;14.804;2023-04-25T08:18:59;8.50;99.90
18839;DHT22;9548;56.920;14.804;2023-04-25T08:21:26;8.50;99.90
18839;DHT22;9548;56.920;14.804;2023-04-25T08:23:53;8.60;99.90
18839;DHT22;9548;56.920;14.804;2023-04-25T08:26:20;8.80;99.90
18839;DHT22;9548;56.920;14.804;2023-04-25T08:28:47;8.90;99.90
18839;DHT22;9548;56.920;14.804;2023-04-25T08:31:14;8.90;99.90
18839;DHT22;9548;56.920;14.804;2023-04-25T08:33:43;8.80;99.90
18839;DHT22;9548;56.920;14.804;2023-04-25T08:36:10;8.80;99.90
18839;DHT22;9548;56.920;14.804;2023-04-25T08:38:38;8.80;99.90
18839;DHT22;9548;56.920;14.804;2023-04-25T08:41:06;8.70;99.90
18839;DHT22;9548;56.920;14.804;2023-04-25T08:43:34;8.70;99.90
18839;DHT22;9548;56.920;14.804;2023-04-25T08:46:01;8.60;99.90
18839;DHT22;9548;56.920;14.804;2023-04-25T08:48:32;8.50;99.90
18839;DHT22;9548;56.920;14.804;2023-04-25T08:51:02;8.60;99.90
18839;DHT22;9548;56.920;14.804;2023-04-25T08:53:31;8.60;99.90
18839;DHT22;9548;56.920;14.804;2023-04-25T08:56:01;8.60;99.90
18839;DHT22;9548;56.920;14.804;2023-04-25T08:58:28;8.50;99.90
18839;DHT22;9548;56.920;14.804;2023-04-25T09:00:55;8.60;99.90
18839;DHT22;9548;56.920;14.804;2023-04-25T09:03:22;8.90;99.90
18839;DHT22;9548;56.920;14.804;2023-04-25T09:05:49;9.10;99.90
18839;DHT22;9548;56.920;14.804;2023-04-25T09:08:19;9.20;99.90
18839;DHT22;9548;56.920;14.804;2023-04-25T09:10:46;9.40;99.90
18839;DHT22;9548;56.920;14.804;2023-04-25T09:13:14;9.60;99.90
18839;DHT22;9548;56.920;14.804;2023-04-25T09:15:51;9.70;99.90
18839;DHT22;9548;56.920;14.804;2023-04-25T09:18:25;9.60;99.90
18839;DHT22;9548;56.920;14.804;2023-04-25T09:20:53;9.70;99.90
18839;DHT22;9548;56.920;14.804;2023-04-25T09:23:22;9.90;99.90
18839;DHT22;9548;56.920;14.804;2023-04-25T09:25:50;9.90;99.90
18839;DHT22;9548;56.920;14.804;2023-04-25T09:28:23;9.90;99.90
18839;DHT22;9548;56.920;14.804;2023-04-25T09:30:55;9.90;99.90
18839;DHT22;9548;56.920;14.804;2023-04-25T09:33:27;10.00;99.90
18839;DHT22;9548;56.920;14.804;2023-04-25T09:36:02;10.00;99.90
18839;DHT22;9548;56.920;14.804;2023-04-25T09:38:32;10.10;99.90
18839;DHT22;9548;56.920;14.804;2023-04-25T09:40:59;10.30;99.90
18839;DHT22;9548;56.920;14.804;2023-04-25T09:43:27;10.50;99.90
18839;DHT22;9548;56.920;14.804;2023-04-25T09:45:54;10.80;99.90
18839;DHT22;9548;56.920;14.804;2023-04-25T09:48:25;10.90;99.90
18839;DHT22;9548;56.920;14.804;2023-04-25T09:51:04;11.10;99.90
18839;DHT22;9548;56.920;14.804;2023-04-25T09:53:33;11.00;99.90
18839;DHT22;9548;56.920;14.804;2023-04-25T09:56:03;11.00;99.90
18839;DHT22;9548;56.920;14.804;2023-04-25T09:58:31;10.90;99.90
18839;DHT22;9548;56.920;14.804;2023-04-25T10:01:00;10.90;99.90
18839;DHT22;9548;56.920;14.804;2023-04-25T10:03:30;11.00;99.90
18839;DHT22;9548;56.920;14.804;2023-04-25T10:05:58;11.00;99.90
18839;DHT22;9548;56.920;14.804;2023-04-25T10:08:29;10.80;99.90
18839;DHT22;9548;56.920;14.804;2023-04-25T10:11:00;10.80;99.90
18839;DHT22;9548;56.920;14.804;2023-04-25T10:13:29;10.60;99.90
18839;DHT22;9548;56.920;14.804;2023-04-25T10:15:57;10.50;99.90
18839;DHT22;9548;56.920;14.804;2023-04-25T10:18:25;10.60;99.90
18839;DHT22;9548;56.920;14.804;2023-04-25T10:20:53;10.50;99.90
18839;DHT22;9548;56.920;14.804;2023-04-25T10:23:21;10.20;99.90
18839;DHT22;9548;56.920;14.804;2023-04-25T10:25:48;10.10;99.90
18839;DHT22;9548;56.920;14.804;2023-04-25T10:28:17;10.00;99.90
18839;DHT22;9548;56.920;14.804;2023-04-25T10:30:57;10.00;99.90
18839;DHT22;9548;56.920;14.804;2023-04-25T10:33:32;10.10;99.90
18839;DHT22;9548;56.920;14.804;2023-04-25T10:36:08;10.10;99.90
18839;DHT22;9548;56.920;14.804;2023-04-25T10:38:36;10.20;99.90
18839;DHT22;9548;56.920;14.804;2023-04-25T10:41:04;10.20;99.90
18839;DHT22;9548;56.920;14.804;2023-04-25T10:43:37;10.30;99.90
18839;DHT22;9548;56.920;14.804;2023-04-25T10:46:17;10.30;99.90
18839;DHT22;9548;56.920;14.804;2023-04-25T10:48:49;10.30;99.90
18839;DHT22;9548;56.920;14.804;2023-04-25T10:51:21;10.30;99.90
18839;DHT22;9548;56.920;14.804;2023-04-25T10:53:57;10.40;99.90
18839;DHT22;9548;56.920;14.804;2023-04-25T10:56:27;10.40;99.90
18839;DHT22;9548;56.920;14.804;2023-04-25T10:59:05;10.70;99.90
18839;DHT22;9548;56.920;14.804;2023-04-25T11:01:37;10.70;99.90
18839;DHT22;9548;56.920;14.804;2023-04-25T11:04:04;10.70;99.90
18839;DHT22;9548;56.920;14.804;2023-04-25T11:06:37;10.70;99.90
18839;DHT22;9548;56.920;14.804;2023-04-25T11:09:11;10.70;99.90
18839;DHT22;9548;56.920;14.804;2023-04-25T11:11:39;10.70;99.90
18839;DHT22;9548;56.920;14.804;2023-04-25T11:14:08;10.70;99.90
18839;DHT22;9548;56.920;14.804;2023-04-25T11:16:35;10.60;99.90
18839;DHT22;9548;56.920;14.804;2023-04-25T11:19:02;10.50;99.90
18839;DHT22;9548;56.920;14.804;2023-04-25T11:21:30;10.50;99.90
18839;DHT22;9548;56.920;14.804;2023-04-25T11:23:59;10.40;99.90
18839;DHT22;9548;56.920;14.804;2023-04-25T11:26:26;10.50;99.90
18839;DHT22;9548;56.920;14.804;2023-04-25T11:28:57;10.80;99.90
18839;DHT22;9548;56.920;14.804;2023-04-25T11:31:26;11.20;99.90
18839;DHT22;9548;56.920;14.804;2023-04-25T11:33:53;12.10;99.90
18839;DHT22;9548;56.920;14.804;2023-04-25T11:36:22;13.00;99.90
18839;DHT22;9548;56.920;14.804;2023-04-25T11:38:50;13.50;99.90
18839;DHT22;9548;56.920;14.804;2023-04-25T11:41:18;13.60;99.90
18839;DHT22;9548;56.920;14.804;2023-04-25T11:43:46;13.60;99.90
18839;DHT22;9548;56.920;14.804;2023-04-25T11:46:14;14.00;99.90
18839;DHT22;9548;56.920;14.804;2023-04-25T11:48:43;15.10;99.90
18839;DHT22;9548;56.920;14.804;2023-04-25T11:51:11;15.30;99.90
18839;DHT22;9548;56.920;14.804;2023-04-25T11:53:41;15.20;99.90
18839;DHT22;9548;56.920;14.804;2023-04-25T11:56:09;14.60;99.90
18839;DHT22;9548;56.920;14.804;2023-04-25T11:58:55;13.70;99.90
18839;DHT22;9548;56.920;14.804;2023-04-25T12:01:30;12.70;99.90
18839;DHT22;9548;56.920;14.804;2023-04-25T12:04:10;12.30;99.90
18839;DHT22;9548;56.920;14.804;2023-04-25T12:06:38;12.00;99.90
18839;DHT22;9548;56.920;14.804;2023-04-25T12:09:08;11.90;99.90
18839;DHT22;9548;56.920;14.804;2023-04-25T12:11:41;12.00;99.90
18839;DHT22;9548;56.920;14.804;2023-04-25T12:14:09;12.00;99.90
18839;DHT22;9548;56.920;14.804;2023-04-25T12:16:43;11.90;99.90
18839;DHT22;9548;56.920;14.804;2023-04-25T12:19:13;12.10;99.90
18839;DHT22;9548;56.920;14.804;2023-04-25T12:21:40;12.30;99.90
18839;DHT22;9548;56.920;14.804;2023-04-25T12:24:12;12.00;99.90
18839;DHT22;9548;56.920;14.804;2023-04-25T12:26:47;11.90;99.90
18839;DHT22;9548;56.920;14.804;2023-04-25T12:29:18;11.60;99.90
18839;DHT22;9548;56.920;14.804;2023-04-25T12:31:45;11.30;99.90
18839;DHT22;9548;56.920;14.804;2023-04-25T12:34:14;11.50;99.90
18839;DHT22;9548;56.920;14.804;2023-04-25T12:36:41;11.60;99.90
18839;DHT22;9548;56.920;14.804;2023-04-25T12:39:08;11.40;99.90
18839;DHT22;9548;56.920;14.804;2023-04-25T12:41:41;11.30;99.90
18839;DHT22;9548;56.920;14.804;2023-04-25T12:44:08;11.20;99.90
18839;DHT22;9548;56.920;14.804;2023-04-25T12:46:35;11.20;99.90
18839;DHT22;9548;56.920;14.804;2023-04-25T12:49:03;11.40;99.90
18839;DHT22;9548;56.920;14.804;2023-04-25T12:51:31;11.60;99.90
18839;DHT22;9548;56.920;14.804;2023-04-25T12:53:58;11.80;99.90
18839;DHT22;9548;56.920;14.804;2023-04-25T12:56:25;11.70;99.90
18839;DHT22;9548;56.920;14.804;2023-04-25T12:58:53;11.70;99.90
18839;DHT22;9548;56.920;14.804;2023-04-25T13:01:20;11.50;99.90
18839;DHT22;9548;56.920;14.804;2023-04-25T13:03:47;11.60;99.90
18839;DHT22;9548;56.920;14.804;2023-04-25T13:06:15;11.70;99.90
18839;DHT22;9548;56.920;14.804;2023-04-25T13:08:43;11.60;99.90
18839;DHT22;9548;56.920;14.804;2023-04-25T13:11:10;11.40;99.90
18839;DHT22;9548;56.920;14.804;2023-04-25T13:13:38;11.40;99.90
18839;DHT22;9548;56.920;14.804;2023-04-25T13:16:06;11.00;99.90
18839;DHT22;9548;56.920;14.804;2023-04-25T13:18:34;10.50;99.90
18839;DHT22;9548;56.920;14.804;2023-04-25T13:21:01;10.10;99.90
18839;DHT22;9548;56.920;14.804;2023-04-25T13:23:29;9.90;99.90
18839;DHT22;9548;56.920;14.804;2023-04-25T13:25:57;9.90;99.90
18839;DHT22;9548;56.920;14.804;2023-04-25T13:28:24;9.80;99.90
18839;DHT22;9548;56.920;14.804;2023-04-25T13:30:52;9.70;99.90
18839;DHT22;9548;56.920;14.804;2023-04-25T13:33:19;9.50;99.90
18839;DHT22;9548;56.920;14.804;2023-04-25T13:35:47;9.40;99.90
18839;DHT22;9548;56.920;14.804;2023-04-25T13:38:20;9.40;99.90
18839;DHT22;9548;56.920;14.804;2023-04-25T13:40:48;9.60;99.90
18839;DHT22;9548;56.920;14.804;2023-04-25T13:43:16;9.70;99.90
18839;DHT22;9548;56.920;14.804;2023-04-25T13:45:43;9.60;99.90
18839;DHT22;9548;56.920;14.804;2023-04-25T13:48:10;9.60;99.90
18839;DHT22;9548;56.920;14.804;2023-04-25T13:50:37;9.50;99.90
18839;DHT22;9548;56.920;14.804;2023-04-25T13:53:04;9.40;99.90
18839;DHT22;9548;56.920;14.804;2023-04-25T13:55:31;9.40;99.90
18839;DHT22;9548;56.920;14.804;2023-04-25T13:57:58;9.40;99.90
18839;DHT22;9548;56.920;14.804;2023-04-25T14:00:26;9.40;99.90
18839;DHT22;9548;56.920;14.804;2023-04-25T14:02:53;9.40;99.90
18839;DHT22;9548;56.920;14.804;2023-04-25T14:05:20;9.40;99.90
18839;DHT22;9548;56.920;14.804;2023-04-25T14:07:47;9.50;99.90
18839;DHT22;9548;56.920;14.804;2023-04-25T14:10:14;9.60;99.90
18839;DHT22;9548;56.920;14.804;2023-04-25T14:12:41;9.80;99.90
18839;DHT22;9548;56.920;14.804;2023-04-25T14:15:08;9.80;99.90
18839;DHT22;9548;56.920;14.804;2023-04-25T14:17:37;9.90;99.90
18839;DHT22;9548;56.920;14.804;2023-04-25T14:20:06;10.00;99.90
18839;DHT22;9548;56.920;14.804;2023-04-25T14:22:34;10.10;99.90
18839;DHT22;9548;56.920;14.804;2023-04-25T14:25:01;10.20;99.90
18839;DHT22;9548;56.920;14.804;2023-04-25T14:27:28;10.20;99.90
18839;DHT22;9548;56.920;14.804;2023-04-25T14:29:55;10.30;99.90
18839;DHT22;9548;56.920;14.804;2023-04-25T14:32:22;10.40;99.90
18839;DHT22;9548;56.920;14.804;2023-04-25T14:34:51;10.50;99.90
18839;DHT22;9548;56.920;14.804;2023-04-25T14:37:17;10.30;99.90
18839;DHT22;9548;56.920;14.804;2023-04-25T14:39:44;10.10;99.90
18839;DHT22;9548;56.920;14.804;2023-04-25T14:42:11;10.00;99.90
18839;DHT22;9548;56.920;14.804;2023-04-25T14:44:38;9.90;99.90
18839;DHT22;9548;56.920;14.804;2023-04-25T14:47:05;9.90;99.90
18839;DHT22;9548;56.920;14.804;2023-04-25T14:49:32;9.90;99.90
18839;DHT22;9548;56.920;14.804;2023-04-25T14:52:01;9.90;99.90
18839;DHT22;9548;56.920;14.804;2023-04-25T14:54:28;9.90;99.90
18839;DHT22;9548;56.920;14.804;2023-04-25T14:56:55;9.90;99.90
18839;DHT22;9548;56.920;14.804;2023-04-25T14:59:23;10.00;99.90
18839;DHT22;9548;56.920;14.804;2023-04-25T15:01:50;10.00;99.90
18839;DHT22;9548;56.920;14.804;2023-04-25T15:04:17;10.00;99.90
18839;DHT22;9548;56.920;14.804;2023-04-25T15:06:44;10.00;99.90
18839;DHT22;9548;56.920;14.804;2023-04-25T15:09:12;10.00;99.90
18839;DHT22;9548;56.920;14.804;2023-04-25T15:11:39;9.80;99.90
18839;DHT22;9548;56.920;14.804;2023-04-25T15:14:06;9.80;99.90
18839;DHT22;9548;56.920;14.804;2023-04-25T15:16:33;9.80;99.90
18839;DHT22;9548;56.920;14.804;2023-04-25T15:19:00;9.80;99.90
18839;DHT22;9548;56.920;14.804;2023-04-25T15:21:30;9.80;99.90
18839;DHT22;9548;56.920;14.804;2023-04-25T15:23:57;9.80;99.90
18839;DHT22;9548;56.920;14.804;2023-04-25T15:26:26;9.90;99.90
18839;DHT22;9548;56.920;14.804;2023-04-25T15:28:53;10.00;99.90
18839;DHT22;9548;56.920;14.804;2023-04-25T15:31:20;10.00;99.90
18839;DHT22;9548;56.920;14.804;2023-04-25T15:33:47;10.00;99.90
18839;DHT22;9548;56.920;14.804;2023-04-25T15:36:14;10.10;99.90
18839;DHT22;9548;56.920;14.804;2023-04-25T15:38:42;10.10;99.90
18839;DHT22;9548;56.920;14.804;2023-04-25T15:41:09;10.00;99.90
18839;DHT22;9548;56.920;14.804;2023-04-25T15:43:37;10.00;99.90
18839;DHT22;9548;56.920;14.804;2023-04-25T15:46:05;9.80;99.90
18839;DHT22;9548;56.920;14.804;2023-04-25T15:48:32;9.70;99.90